sensor_id;sensor_type;location;lat;lon;timestamp;temperature;humidity
12164;DHT22;6145;50.192;10.064;2023-09-12T07:34:24;21.40;84.20
12164;DHT22;6145;50.192;10.064;2023-09-12T07:36:50;21.60;84.60
12164;DHT22;6145;50.192;10.064;2023-09-12T07:39:17;21.70;85.30
12164;DHT22;6145;50.192;10.064;2023-09-12T07:41:44;21.90;85.20
12164;DHT22;6145;50.192;10.064;2023-09-12T07:44:11;22.20;84.10
12164;DHT22;6145;50.192;10.064;2023-09-12T07:46:40;22.30;83.40
12164;DHT22;6145;50.192;10.064;2023-09-12T07:49:07;22.40;82.60
12164;DHT22;6145;50.192;10.064;2023-09-12T07:51:36;22.50;81.80
12164;DHT22;6145;50.192;10.064;2023-09-12T07:54:03;22.60;82.30
12164;DHT22;6145;50.192;10.064;2023-09-12T07:56:30;22.60;82.50
12164;DHT22;6145;50.192;10.064;2023-09-12T07:58:57;22.70;82.70
12164;DHT22;6145;50.192;10.064;2023-09-12T08:01:24;22.80;82.60
12164;DHT22;6145;50.192;10.064;2023-09-12T08:03:52;23.00;82.30
12164;DHT22;6145;50.192;10.064;2023-09-12T08:06:20;23.10;81.80
12164;DHT22;6145;50.192;10.064;2023-09-12T08:08:50;23.20;81.70
12164;DHT22;6145;50.192;10.064;2023-09-12T08:11:16;23.30;81.20
12164;DHT22;6145;50.192;10.064;2023-09-12T08:13:45;23.40;80.60
12164;DHT22;6145;50.192;10.064;2023-09-12T08:16:12;23.40;80.20
12164;DHT22;6145;50.192;10.064;2023-09-12T08:18:39;23.50;80.10
12164;DHT22;6145;50.192;10.064;2023-09-12T08:21:06;23.60;79.20
12164;DHT22;6145;50.192;10.064;2023-09-12T08:23:33;23.50;78.60
12164;DHT22;6145;50.192;10.064;2023-09-12T08:26:03;23.70;78.60
12164;DHT22;6145;50.192;10.064;2023-09-12T08:28:29;23.60;78.60
12164;DHT22;6145;50.192;10.064;2023-09-12T08:30:56;23.60;78.70
12164;DHT22;6145;50.192;10.064;2023-09-12T08:33:23;23.70;78.80
12164;DHT22;6145;50.192;10.064;2023-09-12T08:35:50;23.70;79.00
12164;DHT22;6145;50.192;10.064;2023-09-12T08:38:17;23.80;78.70
12164;DHT22;6145;50.192;10.064;2023-09-12T08:40:48;23.90;78.80
12164;DHT22;6145;50.192;10.064;2023-09-12T08:43:17;23.90;78.60
12164;DHT22;6145;50.192;10.064;2023-09-12T08:45:44;23.90;78.00
12164;DHT22;6145;50.192;10.064;2023-09-12T08:48:11;24.00;77.70
12164;DHT22;6145;50.192;10.064;2023-09-12T08:50:39;23.90;77.20
12164;DHT22;6145;50.192;10.064;2023-09-12T08:53:06;23.90;77.50
12164;DHT22;6145;50.192;10.064;2023-09-12T08:55:33;24.00;78.30
12164;DHT22;6145;50.192;10.064;2023-09-12T08:58:02;23.90;79.50
12164;DHT22;6145;50.192;10.064;2023-09-12T09:00:31;24.20;79.10
12164;DHT22;6145;50.192;10.064;2023-09-12T09:02:59;24.30;77.20
12164;DHT22;6145;50.192;10.064;2023-09-12T09:05:27;24.40;76.70
12164;DHT22;6145;50.192;10.064;2023-09-12T09:07:55;24.50;76.50
12164;DHT22;6145;50.192;10.064;2023-09-12T09:10:23;24.60;76.90
12164;DHT22;6145;50.192;10.064;2023-09-12T09:12:50;24.70;76.70
12164;DHT22;6145;50.192;10.064;2023-09-12T09:15:20;24.70;77.00
12164;DHT22;6145;50.192;10.064;2023-09-12T09:17:49;24.80;77.20
12164;DHT22;6145;50.192;10.064;2023-09-12T09:20:26;24.90;78.10
12164;DHT22;6145;50.192;10.064;2023-09-12T09:23:00;25.10;77.70
12164;DHT22;6145;50.192;10.064;2023-09-12T09:25:28;25.10;78.50
12164;DHT22;6145;50.192;10.064;2023-09-12T09:27:56;25.30;78.20
12164;DHT22;6145;50.192;10.064;2023-09-12T09:30:40;25.40;76.70
12164;DHT22;6145;50.192;10.064;2023-09-12T09:33:09;25.60;77.10
12164;DHT22;6145;50.192;10.064;2023-09-12T09:35:36;25.60;77.20
12164;DHT22;6145;50.192;10.064;2023-09-12T09:38:06;25.70;76.80
12164;DHT22;6145;50.192;10.064;2023-09-12T09:40:34;25.80;76.80
12164;DHT22;6145;50.192;10.064;2023-09-12T09:43:02;26.00;76.30
12164;DHT22;6145;50.192;10.064;2023-09-12T09:45:30;26.10;76.40
12164;DHT22;6145;50.192;10.064;2023-09-12T09:47:58;26.20;76.00
12164;DHT22;6145;50.192;10.064;2023-09-12T09:50:27;26.40;75.70
12164;DHT22;6145;50.192;10.064;2023-09-12T09:52:54;27.60;76.00
12164;DHT22;6145;50.192;10.064;2023-09-12T09:55:23;26.70;74.40
12164;DHT22;6145;50.192;10.064;2023-09-12T09:57:50;26.80;72.50
12164;DHT22;6145;50.192;10.064;2023-09-12T10:00:22;26.90;73.60
12164;DHT22;6145;50.192;10.064;2023-09-12T10:02:50;27.00;73.10
12164;DHT22;6145;50.192;10.064;2023-09-12T10:05:18;27.10;72.10
12164;DHT22;6145;50.192;10.064;2023-09-12T10:07:49;27.30;73.00
12164;DHT22;6145;50.192;10.064;2023-09-12T10:10:18;27.30;70.60
12164;DHT22;6145;50.192;10.064;2023-09-12T10:12:49;27.40;70.90
12164;DHT22;6145;50.192;10.064;2023-09-12T11:39:02;30.40;63.60
12164;DHT22;6145;50.192;10.064;2023-09-12T11:41:41;30.40;64.20
12164;DHT22;6145;50.192;10.064;2023-09-12T11:44:08;30.60;63.80
12164;DHT22;6145;50.192;10.064;2023-09-12T11:46:49;30.70;64.10
12164;DHT22;6145;50.192;10.064;2023-09-12T11:49:17;30.80;62.80
12164;DHT22;6145;50.192;10.064;2023-09-12T11:51:49;30.90;62.10
12164;DHT22;6145;50.192;10.064;2023-09-12T11:54:18;31.00;60.40
12164;DHT22;6145;50.192;10.064;2023-09-12T11:56:47;31.10;61.80
12164;DHT22;6145;50.192;10.064;2023-09-12T11:59:14;31.10;61.50
12164;DHT22;6145;50.192;10.064;2023-09-12T12:01:42;31.20;62.10
12164;DHT22;6145;50.192;10.064;2023-09-12T12:04:09;31.20;60.40
12164;DHT22;6145;50.192;10.064;2023-09-12T12:06:36;31.20;61.00
12164;DHT22;6145;50.192;10.064;2023-09-12T12:09:03;31.20;62.00
12164;DHT22;6145;50.192;10.064;2023-09-12T12:11:32;31.30;59.80
12164;DHT22;6145;50.192;10.064;2023-09-12T12:14:10;31.30;60.40
12164;DHT22;6145;50.192;10.064;2023-09-12T12:16:37;31.40;61.10
12164;DHT22;6145;50.192;10.064;2023-09-12T12:19:04;31.40;60.70
12164;DHT22;6145;50.192;10.064;2023-09-12T12:21:31;31.40;60.90
12164;DHT22;6145;50.192;10.064;2023-09-12T12:23:59;31.50;59.20
12164;DHT22;6145;50.192;10.064;2023-09-12T12:26:25;31.50;60.10
12164;DHT22;6145;50.192;10.064;2023-09-12T12:28:54;31.70;59.30
12164;DHT22;6145;50.192;10.064;2023-09-12T12:31:21;31.60;60.10
12164;DHT22;6145;50.192;10.064;2023-09-12T12:33:50;31.70;59.90
12164;DHT22;6145;50.192;10.064;2023-09-12T12:36:17;31.80;60.20
12164;DHT22;6145;50.192;10.064;2023-09-12T12:38:46;31.80;60.50
12164;DHT22;6145;50.192;10.064;2023-09-12T12:41:13;31.80;60.00
12164;DHT22;6145;50.192;10.064;2023-09-12T12:43:41;31.80;60.00
12164;DHT22;6145;50.192;10.064;2023-09-12T12:46:12;31.90;59.50
12164;DHT22;6145;50.192;10.064;2023-09-12T12:48:43;31.80;59.10
12164;DHT22;6145;50.192;10.064;2023-09-12T12:51:14;31.90;59.30
12164;DHT22;6145;50.192;10.064;2023-09-12T12:53:53;31.90;59.20
12164;DHT22;6145;50.192;10.064;2023-09-12T12:56:21;31.90;58.50
12164;DHT22;6145;50.192;10.064;2023-09-12T12:58:50;31.90;58.10
12164;DHT22;6145;50.192;10.064;2023-09-12T13:01:19;32.00;59.10
12164;DHT22;6145;50.192;10.064;2023-09-12T13:03:45;32.00;59.10
12164;DHT22;6145;50.192;10.064;2023-09-12T13:06:13;32.10;59.50
12164;DHT22;6145;50.192;10.064;2023-09-12T13:08:44;32.20;59.00
12164;DHT22;6145;50.192;10.064;2023-09-12T13:11:13;32.20;59.60
12164;DHT22;6145;50.192;10.064;2023-09-12T13:13:41;32.20;59.70
12164;DHT22;6145;50.192;10.064;2023-09-12T13:16:10;32.20;56.70
12164;DHT22;6145;50.192;10.064;2023-09-12T13:18:39;32.20;58.70
12164;DHT22;6145;50.192;10.064;2023-09-12T13:21:06;32.20;58.90
12164;DHT22;6145;50.192;10.064;2023-09-12T13:23:34;32.30;57.50
12164;DHT22;6145;50.192;10.064;2023-09-12T13:26:03;32.30;55.70
12164;DHT22;6145;50.192;10.064;2023-09-12T13:28:31;32.40;56.20
12164;DHT22;6145;50.192;10.064;2023-09-12T13:30:58;32.40;55.80
12164;DHT22;6145;50.192;10.064;2023-09-12T13:33:25;32.40;57.10
12164;DHT22;6145;50.192;10.064;2023-09-12T13:35:53;32.50;58.70
12164;DHT22;6145;50.192;10.064;2023-09-12T13:38:19;32.40;57.30
12164;DHT22;6145;50.192;10.064;2023-09-12T13:40:48;32.50;56.50
12164;DHT22;6145;50.192;10.064;2023-09-12T13:43:15;32.50;55.90
12164;DHT22;6145;50.192;10.064;2023-09-12T13:45:42;32.50;55.40
12164;DHT22;6145;50.192;10.064;2023-09-12T13:48:09;32.50;57.00
12164;DHT22;6145;50.192;10.064;2023-09-12T13:50:38;32.60;56.10
12164;DHT22;6145;50.192;10.064;2023-09-12T13:53:06;32.70;55.10
12164;DHT22;6145;50.192;10.064;2023-09-12T13:55:33;32.70;57.00
12164;DHT22;6145;50.192;10.064;2023-09-12T13:58:02;32.70;57.50
12164;DHT22;6145;50.192;10.064;2023-09-12T14:00:29;32.70;58.10
12164;DHT22;6145;50.192;10.064;2023-09-12T14:02:56;32.70;57.20
12164;DHT22;6145;50.192;10.064;2023-09-12T14:05:23;32.70;58.40
12164;DHT22;6145;50.192;10.064;2023-09-12T14:07:50;32.70;57.90
12164;DHT22;6145;50.192;10.064;2023-09-12T14:10:19;32.70;57.20
12164;DHT22;6145;50.192;10.064;2023-09-12T14:12:45;32.70;57.70
12164;DHT22;6145;50.192;10.064;2023-09-12T14:15:12;32.70;58.30
12164;DHT22;6145;50.192;10.064;2023-09-12T14:17:40;32.80;56.40
12164;DHT22;6145;50.192;10.064;2023-09-12T14:20:11;32.80;55.40
12164;DHT22;6145;50.192;10.064;2023-09-12T14:22:41;32.70;55.60
12164;DHT22;6145;50.192;10.064;2023-09-12T14:25:09;32.80;57.10
12164;DHT22;6145;50.192;10.064;2023-09-12T14:34:57;32.60;57.50
12164;DHT22;6145;50.192;10.064;2023-09-12T14:37:24;32.50;55.30
12164;DHT22;6145;50.192;10.064;2023-09-12T14:40:05;32.50;54.50
12164;DHT22;6145;50.192;10.064;2023-09-12T14:42:44;32.50;53.50
12164;DHT22;6145;50.192;10.064;2023-09-12T14:45:11;32.50;55.20
12164;DHT22;6145;50.192;10.064;2023-09-12T14:47:38;32.50;54.10
12164;DHT22;6145;50.192;10.064;2023-09-12T14:50:06;32.40;53.50
12164;DHT22;6145;50.192;10.064;2023-09-12T14:52:34;32.40;55.70
12164;DHT22;6145;50.192;10.064;2023-09-12T14:55:02;32.30;54.80
12164;DHT22;6145;50.192;10.064;2023-09-12T14:57:36;32.30;55.00
12164;DHT22;6145;50.192;10.064;2023-09-12T15:00:06;32.30;56.20
12164;DHT22;6145;50.192;10.064;2023-09-12T15:02:33;32.30;55.20
12164;DHT22;6145;50.192;10.064;2023-09-12T15:05:01;32.30;56.10
12164;DHT22;6145;50.192;10.064;2023-09-12T15:07:31;32.20;57.00
12164;DHT22;6145;50.192;10.064;2023-09-12T15:10:00;32.30;56.20
12164;DHT22;6145;50.192;10.064;2023-09-12T15:12:27;32.30;56.10
12164;DHT22;6145;50.192;10.064;2023-09-12T15:14:54;32.30;56.00
12164;DHT22;6145;50.192;10.064;2023-09-12T15:17:21;32.40;56.40
12164;DHT22;6145;50.192;10.064;2023-09-12T15:19:47;32.30;56.60
12164;DHT22;6145;50.192;10.064;2023-09-12T15:22:14;32.30;56.70
12164;DHT22;6145;50.192;10.064;2023-09-12T15:24:43;32.30;56.90
12164;DHT22;6145;50.192;10.064;2023-09-12T15:27:09;32.30;58.10
12164;DHT22;6145;50.192;10.064;2023-09-12T15:29:36;32.30;57.50
12164;DHT22;6145;50.192;10.064;2023-09-12T15:32:04;32.30;57.80
12164;DHT22;6145;50.192;10.064;2023-09-12T15:34:31;32.30;58.20
12164;DHT22;6145;50.192;10.064;2023-09-12T15:37:08;32.40;57.90
12164;DHT22;6145;50.192;10.064;2023-09-12T16:37:26;32.00;59.30
12164;DHT22;6145;50.192;10.064;2023-09-12T16:39:54;31.90;59.40
12164;DHT22;6145;50.192;10.064;2023-09-12T16:42:21;31.90;59.00
12164;DHT22;6145;50.192;10.064;2023-09-12T16:44:48;31.80;59.60
12164;DHT22;6145;50.192;10.064;2023-09-12T16:47:15;31.70;59.60
12164;DHT22;6145;50.192;10.064;2023-09-12T16:49:43;31.60;59.20
12164;DHT22;6145;50.192;10.064;2023-09-12T16:52:10;31.60;59.80
12164;DHT22;6145;50.192;10.064;2023-09-12T16:54:40;31.40;59.90
12164;DHT22;6145;50.192;10.064;2023-09-12T16:57:10;31.40;60.30
12164;DHT22;6145;50.192;10.064;2023-09-12T16:59:39;31.30;60.70
12164;DHT22;6145;50.192;10.064;2023-09-12T17:02:07;31.20;61.00
12164;DHT22;6145;50.192;10.064;2023-09-12T17:04:35;31.10;61.80
12164;DHT22;6145;50.192;10.064;2023-09-12T17:07:03;31.00;62.60
12164;DHT22;6145;50.192;10.064;2023-09-12T17:09:29;30.90;62.20
12164;DHT22;6145;50.192;10.064;2023-09-12T17:12:01;30.80;62.60
12164;DHT22;6145;50.192;10.064;2023-09-12T17:14:28;30.70;63.00
12164;DHT22;6145;50.192;10.064;2023-09-12T17:16:55;30.60;63.40
12164;DHT22;6145;50.192;10.064;2023-09-12T17:19:22;30.50;63.90
12164;DHT22;6145;50.192;10.064;2023-09-12T17:21:49;30.40;64.80
12164;DHT22;6145;50.192;10.064;2023-09-12T17:24:16;30.30;64.30
12164;DHT22;6145;50.192;10.064;2023-09-12T17:26:43;30.30;64.70
12164;DHT22;6145;50.192;10.064;2023-09-12T17:29:11;30.10;64.80
12164;DHT22;6145;50.192;10.064;2023-09-12T17:31:38;30.00;65.20
